< < Back
Terminal Aerodrome Forecast


Current Version              Previous Versions:   1  2  3  4  5  6  7  8  9  

Terminal Aerodrome Forecast

339
FTUS42 KGSP 281100
TAFGSP
TAF
KGSP 281122Z 2812/2912 24003KT P6SM SKC
     FM281600 28012G20KT P6SM FEW060 SCT250
     FM282300 32009KT P6SM FEW250
     FM290300 00000KT P6SM FEW250=

Latest METAR

452
SAUS70 KWBC 281800 RRI
MTRGSP
METAR KGSP 281753Z 26009G19KT 10SM CLR 32/16 A2985 RMK AO2 SLP092
T03170161 10317 20233 58006


USA.gov is the U.S. government's official web portal to all federal, state and local government web resources and services.